createdAt,value
2018-12-24T00:04:40.428Z,9.10
2018-12-24T00:09:47.471Z,9.00
2018-12-24T00:14:53.628Z,9.10
2018-12-24T00:20:00.273Z,9.10
2018-12-24T00:25:06.128Z,9.00
2018-12-24T00:30:12.717Z,9.00
2018-12-24T00:35:25.051Z,9.00
2018-12-24T00:40:30.599Z,9.00
2018-12-24T00:45:36.797Z,9.00
2018-12-24T00:50:44.616Z,9.00
2018-12-24T00:55:50.848Z,9.00
2018-12-24T01:00:57.193Z,9.00
2018-12-24T01:06:04.579Z,9.00
2018-12-24T01:11:11.597Z,8.90
2018-12-24T01:16:16.962Z,8.90
2018-12-24T01:21:23.801Z,8.90
2018-12-24T01:26:31.238Z,8.90
2018-12-24T01:31:37.742Z,9.00
2018-12-24T01:36:45.698Z,9.00
2018-12-24T01:41:51.603Z,9.00
2018-12-24T01:46:57.372Z,9.00
2018-12-24T01:52:03.239Z,9.00
2018-12-24T01:57:10.084Z,9.00
2018-12-24T02:02:17.101Z,9.00
2018-12-24T02:07:23.942Z,9.00
2018-12-24T02:12:30.304Z,9.10
2018-12-24T02:17:38.157Z,9.10
2018-12-24T02:22:44.364Z,9.10
2018-12-24T02:27:51.448Z,9.10
2018-12-24T02:32:57.614Z,9.00
2018-12-24T02:38:03.174Z,9.10
2018-12-24T02:43:09.189Z,9.10
2018-12-24T02:48:16.673Z,9.10
2018-12-24T02:53:22.931Z,9.10
2018-12-24T02:58:29.673Z,9.10
2018-12-24T03:03:38.476Z,9.20
2018-12-24T03:08:45.727Z,9.10
2018-12-24T03:13:52.131Z,9.20
2018-12-24T03:19:00.381Z,9.20
2018-12-24T03:24:07.110Z,9.20
2018-12-24T03:29:14.040Z,9.20
2018-12-24T03:34:21.138Z,9.20
2018-12-24T03:39:28.033Z,9.20
2018-12-24T03:44:34.029Z,9.20
2018-12-24T03:49:41.337Z,9.20
2018-12-24T03:54:48.084Z,9.20
2018-12-24T03:59:54.532Z,9.20
2018-12-24T04:04:59.977Z,9.20
2018-12-24T04:10:06.691Z,9.20
2018-12-24T04:15:13.856Z,9.20
2018-12-24T04:20:20.213Z,9.20
2018-12-24T04:25:27.294Z,9.10
2018-12-24T04:30:33.408Z,9.10
2018-12-24T04:35:39.167Z,9.10
2018-12-24T04:40:45.248Z,9.10
2018-12-24T04:45:50.725Z,9.00
2018-12-24T04:50:56.165Z,9.10
2018-12-24T04:56:02.525Z,9.10
2018-12-24T05:01:08.530Z,9.10
2018-12-24T05:06:14.899Z,9.10
2018-12-24T05:11:20.709Z,9.00
2018-12-24T05:16:26.261Z,9.10
2018-12-24T05:21:33.277Z,9.10
2018-12-24T05:26:40.037Z,9.10
2018-12-24T05:31:49.148Z,9.10
2018-12-24T05:36:56.421Z,9.10
2018-12-24T05:42:02.740Z,9.10
2018-12-24T05:47:09.060Z,9.10
2018-12-24T05:52:17.006Z,9.10
2018-12-24T05:57:23.105Z,9.10
2018-12-24T06:02:31.032Z,9.10
2018-12-24T06:07:36.408Z,9.00
2018-12-24T06:12:42.193Z,9.10
2018-12-24T06:17:51.063Z,9.00
2018-12-24T06:23:00.842Z,9.10
2018-12-24T06:28:08.580Z,9.10
2018-12-24T06:33:14.178Z,9.10
2018-12-24T06:38:23.009Z,9.10
2018-12-24T06:43:31.293Z,9.00
2018-12-24T06:48:38.385Z,9.00
2018-12-24T06:53:46.546Z,9.00
2018-12-24T06:58:52.133Z,9.00
2018-12-24T07:04:00.054Z,9.00
2018-12-24T07:09:07.821Z,8.90
2018-12-24T07:14:34.644Z,8.90
2018-12-24T07:19:42.089Z,8.90
2018-12-24T07:24:49.053Z,8.80
2018-12-24T07:29:56.962Z,8.80
2018-12-24T07:35:02.881Z,8.70
2018-12-24T07:40:10.628Z,8.70
2018-12-24T07:45:17.405Z,8.60
2018-12-24T07:50:26.257Z,8.60
2018-12-24T07:55:32.852Z,8.50
2018-12-24T08:00:39.540Z,8.50
2018-12-24T08:05:46.726Z,8.40
2018-12-24T08:10:52.567Z,8.30
2018-12-24T08:15:58.899Z,8.20
2018-12-24T08:21:04.573Z,8.20
2018-12-24T08:26:10.010Z,8.10
2018-12-24T08:31:16.785Z,8.00
2018-12-24T08:36:23.102Z,7.90
2018-12-24T08:41:28.971Z,7.90
2018-12-24T08:46:45.173Z,7.80
2018-12-24T08:51:52.176Z,7.70
2018-12-24T08:56:58.419Z,7.70
2018-12-24T09:02:05.581Z,7.70
2018-12-24T09:07:11.796Z,7.60
2018-12-24T09:12:19.050Z,7.60
2018-12-24T09:17:25.468Z,7.60
2018-12-24T09:22:31.871Z,7.60
2018-12-24T09:27:38.860Z,7.60
2018-12-24T09:32:46.407Z,7.60
2018-12-24T09:37:52.432Z,7.60
2018-12-24T09:42:57.925Z,7.60
2018-12-24T09:48:04.120Z,7.60
2018-12-24T09:53:10.113Z,7.60
2018-12-24T09:58:18.333Z,7.60
2018-12-24T10:03:44.779Z,7.60
2018-12-24T10:08:51.049Z,7.60
2018-12-24T10:13:58.149Z,7.60
2018-12-24T10:19:06.638Z,7.60
2018-12-24T10:24:13.935Z,7.60
2018-12-24T10:29:20.472Z,7.60
2018-12-24T10:34:26.092Z,7.60
2018-12-24T10:39:31.912Z,7.60
2018-12-24T10:44:38.734Z,7.60
2018-12-24T10:49:44.834Z,7.60
2018-12-24T10:54:51.224Z,7.60
2018-12-24T10:59:57.710Z,7.60
2018-12-24T11:05:02.621Z,7.60
2018-12-24T11:10:16.301Z,7.70
2018-12-24T11:15:25.223Z,7.80
2018-12-24T11:20:29.545Z,7.90
2018-12-24T11:25:37.848Z,7.90
2018-12-24T11:30:44.025Z,8.00
2018-12-24T11:35:49.861Z,8.10
2018-12-24T11:40:56.294Z,8.20
2018-12-24T11:46:02.535Z,8.20
2018-12-24T11:51:08.429Z,8.30
2018-12-24T11:56:14.411Z,8.40
2018-12-24T12:01:20.309Z,8.40
2018-12-24T12:06:26.392Z,8.50
2018-12-24T12:11:31.961Z,8.60
2018-12-24T12:16:39.094Z,8.60
2018-12-24T12:21:43.864Z,8.70
2018-12-24T12:26:50.555Z,8.80
2018-12-24T12:31:58.201Z,8.90
2018-12-24T12:37:05.558Z,8.80
2018-12-24T12:42:12.332Z,8.80
2018-12-24T12:47:20.298Z,8.80
2018-12-24T12:52:36.860Z,8.90
2018-12-24T12:57:44.759Z,9.00
2018-12-24T13:02:51.694Z,9.10
2018-12-24T13:07:57.641Z,9.10
2018-12-24T13:13:05.162Z,9.10
2018-12-24T13:18:13.479Z,9.10
2018-12-24T13:23:20.141Z,9.10
2018-12-24T13:28:28.109Z,9.10
2018-12-24T13:33:37.052Z,9.10
2018-12-24T13:38:44.589Z,9.10
2018-12-24T13:43:54.178Z,9.10
2018-12-24T13:49:03.972Z,9.00
2018-12-24T13:54:09.876Z,9.00
2018-12-24T13:59:16.802Z,9.00
2018-12-24T14:04:22.896Z,9.00
2018-12-24T14:09:28.562Z,8.90
2018-12-24T14:14:35.139Z,8.90
2018-12-24T14:19:40.226Z,8.90
2018-12-24T14:24:46.426Z,8.80
2018-12-24T14:29:52.909Z,8.80
2018-12-24T14:41:03.395Z,8.60
2018-12-24T14:46:11.292Z,8.40
2018-12-24T14:51:17.996Z,8.30
2018-12-24T14:56:24.351Z,8.20
2018-12-24T15:01:30.662Z,8.10
2018-12-24T15:06:38.447Z,7.90
2018-12-24T15:11:48.406Z,7.80
2018-12-24T15:16:55.654Z,7.70
2018-12-24T15:22:05.422Z,7.60
2018-12-24T15:27:12.727Z,7.50
2018-12-24T15:32:19.385Z,7.40
2018-12-24T15:37:26.300Z,7.20
2018-12-24T15:42:32.243Z,7.20
2018-12-24T15:47:38.051Z,7.10
2018-12-24T15:52:43.925Z,6.90
2018-12-24T15:57:51.989Z,6.90
2018-12-24T16:02:59.521Z,6.80
2018-12-24T16:08:05.927Z,6.70
2018-12-24T16:13:12.144Z,6.70
2018-12-24T16:18:41.491Z,6.60
2018-12-24T16:23:48.208Z,6.60
2018-12-24T16:28:54.300Z,6.50
2018-12-24T16:34:02.351Z,6.40
2018-12-24T16:39:08.561Z,6.30
2018-12-24T16:44:14.552Z,6.20
2018-12-24T16:49:19.989Z,6.20
2018-12-24T16:54:26.809Z,6.10
2018-12-24T16:59:33.675Z,6.10
2018-12-24T17:04:39.321Z,6.00
2018-12-24T17:09:46.473Z,6.00
2018-12-24T17:14:52.114Z,6.00
2018-12-24T17:19:58.068Z,6.10
2018-12-24T17:25:05.460Z,6.20
2018-12-24T17:30:11.757Z,6.20
2018-12-24T17:35:17.389Z,6.30
2018-12-24T17:40:23.253Z,6.30
2018-12-24T17:45:29.493Z,6.30
2018-12-24T17:50:35.069Z,6.40
2018-12-24T17:55:40.502Z,6.40
2018-12-24T18:00:45.212Z,6.40
2018-12-24T18:05:55.328Z,6.40
2018-12-24T18:11:01.010Z,6.40
2018-12-24T18:16:08.903Z,6.50
2018-12-24T18:21:16.485Z,6.50
2018-12-24T18:26:23.724Z,6.50
2018-12-24T18:31:29.432Z,6.50
2018-12-24T18:36:34.801Z,6.60
2018-12-24T18:41:41.009Z,6.60
2018-12-24T18:46:47.424Z,6.60
2018-12-24T18:51:53.795Z,6.60
2018-12-24T18:56:59.565Z,6.70
2018-12-24T19:02:04.660Z,6.70
2018-12-24T19:07:10.617Z,6.70
2018-12-24T19:12:15.724Z,6.80
2018-12-24T19:17:20.893Z,6.80
2018-12-24T19:22:27.170Z,6.80
2018-12-24T19:27:34.475Z,6.80
2018-12-24T19:32:40.182Z,6.80
2018-12-24T19:37:47.066Z,6.90
2018-12-24T19:42:54.501Z,6.90
2018-12-24T19:47:59.962Z,6.90
2018-12-24T19:53:13.349Z,6.90
2018-12-24T19:58:21.689Z,7.00
2018-12-24T20:03:28.321Z,7.10
2018-12-24T20:08:35.313Z,7.10
2018-12-24T20:13:42.004Z,7.20
2018-12-24T20:18:48.537Z,7.20
2018-12-24T20:23:55.217Z,7.20
2018-12-24T20:29:00.665Z,7.30
2018-12-24T20:34:08.638Z,7.40
2018-12-24T20:39:16.552Z,7.40
2018-12-24T20:44:24.021Z,7.40
2018-12-24T20:49:31.265Z,7.40
2018-12-24T20:54:38.665Z,7.50
2018-12-24T20:59:45.118Z,7.50
2018-12-24T21:04:52.440Z,7.50
2018-12-24T21:09:59.772Z,7.50
2018-12-24T21:15:07.849Z,7.60
2018-12-24T21:20:15.496Z,7.60
2018-12-24T21:25:23.867Z,7.60
2018-12-24T21:30:30.007Z,7.60
2018-12-24T21:35:37.497Z,7.60
2018-12-24T21:40:45.356Z,7.60
2018-12-24T21:45:54.399Z,7.60
2018-12-24T21:51:00.723Z,7.60
2018-12-24T21:56:07.597Z,7.60
2018-12-24T22:01:15.623Z,7.60
2018-12-24T22:06:21.207Z,7.60
2018-12-24T22:11:28.013Z,7.60
2018-12-24T22:16:34.940Z,7.60
2018-12-24T22:21:41.677Z,7.60
2018-12-24T22:26:47.373Z,7.70
2018-12-24T22:31:55.107Z,7.60
2018-12-24T22:37:02.321Z,7.70
2018-12-24T22:42:09.692Z,7.70
2018-12-24T22:47:16.379Z,7.70
2018-12-24T22:52:25.073Z,7.70
2018-12-24T22:57:32.156Z,7.70
2018-12-24T23:02:38.877Z,7.70
2018-12-24T23:07:45.365Z,7.70
2018-12-24T23:12:51.587Z,7.80
2018-12-24T23:17:59.276Z,7.80
2018-12-24T23:23:07.549Z,7.80
2018-12-24T23:28:12.675Z,7.80
2018-12-24T23:33:17.995Z,7.80
2018-12-24T23:38:25.866Z,7.80
2018-12-24T23:43:32.018Z,7.80
2018-12-24T23:48:37.858Z,7.80
2018-12-24T23:53:43.825Z,7.80
2018-12-24T23:58:50.505Z,7.80
